Time;durP1;ratioP1;P1;durP2;ratioP2;P2;SDS_P1;SDS_P2;PMS_P1;PMS_P2;Temp;Humidity;BMP_temperature;BMP_pressure;BME280_temperature;BME280_humidity;BME280_pressure;Samples;Min_cycle;Max_cycle;Signal;HPM_P1;HPM_P2
2023/06/30 00:01:29;;;;;;;16.35;15.02;;;24.50;64.60;25.30;100499.00;;;;4996729;28;20179;-52
2023/06/30 00:03:56;;;;;;;15.63;14.43;;;24.50;63.80;25.40;100496.00;;;;5014488;28;20207;-52
2023/06/30 00:06:22;;;;;;;14.32;13.13;;;24.60;63.90;25.30;100496.00;;;;5013909;28;20223;-54
2023/06/30 00:08:48;;;;;;;14.75;13.43;;;24.50;63.70;25.30;100496.00;;;;5011519;28;20168;-53
2023/06/30 00:11:14;;;;;;;13.32;12.32;;;24.50;63.80;25.30;100497.00;;;;5011633;28;20208;-52
2023/06/30 00:13:40;;;;;;;10.35;9.55;;;24.50;63.80;25.30;100491.00;;;;5011421;28;20171;-53
2023/06/30 00:16:06;;;;;;;9.50;8.80;;;24.40;63.70;25.20;100494.00;;;;5011899;28;20538;-52
2023/06/30 00:18:31;;;;;;;9.02;8.32;;;24.50;63.70;25.20;100486.00;;;;5011765;28;20195;-52
2023/06/30 00:20:57;;;;;;;7.93;7.22;;;24.40;63.40;25.20;100463.00;;;;5011611;28;20172;-52
2023/06/30 00:23:27;;;;;;;7.68;7.07;;;24.50;63.30;25.20;100498.00;;;;5011606;28;20191;-52
2023/06/30 00:25:53;;;;;;;6.72;6.22;;;24.50;63.20;25.20;100498.00;;;;5009972;28;20195;-53
2023/06/30 00:28:18;;;;;;;6.85;6.22;;;24.50;63.00;25.20;100490.00;;;;5011703;28;20653;-53
2023/06/30 00:30:44;;;;;;;6.45;5.95;;;24.50;63.10;25.20;100503.00;;;;5011387;28;20686;-53
2023/06/30 00:33:10;;;;;;;6.05;5.65;;;24.50;62.90;25.30;100497.00;;;;5011484;28;20176;-53
2023/06/30 00:35:36;;;;;;;5.80;5.30;;;24.60;62.90;25.30;100493.00;;;;5011151;28;20191;-53
2023/06/30 00:38:01;;;;;;;5.85;5.35;;;24.50;62.80;25.20;100503.00;;;;5011059;28;20685;-53
2023/06/30 00:40:27;;;;;;;5.40;5.00;;;24.50;62.70;25.20;100491.00;;;;5011365;28;20679;-52
2023/06/30 00:42:53;;;;;;;5.82;5.22;;;24.60;62.70;25.30;100497.00;;;;5011474;28;20216;-52
2023/06/30 00:45:18;;;;;;;5.40;5.00;;;24.50;62.50;25.30;100502.00;;;;5011058;28;20202;-52
2023/06/30 00:47:44;;;;;;;5.63;5.22;;;24.50;62.40;25.30;100500.00;;;;5011452;28;20207;-53
2023/06/30 00:50:11;;;;;;;5.70;5.20;;;24.50;62.20;25.30;100495.00;;;;5011285;28;20200;-52
2023/06/30 00:52:37;;;;;;;5.32;4.93;;;24.60;62.20;25.30;100503.00;;;;5017611;28;20175;-53
2023/06/30 00:55:05;;;;;;;5.35;4.95;;;24.60;62.10;25.30;100503.00;;;;5013057;28;20195;-52
2023/06/30 00:57:31;;;;;;;5.15;4.75;;;24.60;62.00;25.30;100503.00;;;;5011479;28;20251;-53
2023/06/30 00:59:58;;;;;;;4.75;4.45;;;24.60;61.80;25.30;100506.00;;;;5011519;28;20643;-53
2023/06/30 01:02:26;;;;;;;4.90;4.50;;;24.60;61.70;25.20;100497.00;;;;5011938;28;20191;-53
2023/06/30 01:04:59;;;;;;;4.85;4.30;;;24.60;61.70;25.30;100502.00;;;;5009327;28;20220;-53
2023/06/30 01:07:43;;;;;;;4.90;4.50;;;24.60;61.50;25.30;100435.00;;;;5014029;28;20222;-52
2023/06/30 01:10:17;;;;;;;4.45;4.15;;;24.60;61.40;25.30;100496.00;;;;5011474;28;20694;-51
2023/06/30 01:12:43;;;;;;;4.35;4.05;;;24.60;61.30;25.30;100505.00;;;;4993410;28;20260;-52
2023/06/30 01:15:09;;;;;;;4.20;3.90;;;24.60;61.10;25.30;100504.00;;;;5010642;28;20210;-52
2023/06/30 01:17:35;;;;;;;4.10;3.80;;;24.60;61.00;25.30;100493.00;;;;5010685;28;20168;-52
2023/06/30 01:20:01;;;;;;;4.00;3.70;;;24.60;60.80;25.30;100447.00;;;;5010882;28;20218;-52
2023/06/30 01:22:39;;;;;;;4.03;3.72;;;24.60;60.90;25.30;100458.00;;;;5009719;28;20223;-53
2023/06/30 01:25:18;;;;;;;3.95;3.65;;;24.60;60.70;25.30;100520.00;;;;5008921;28;20246;-52
2023/06/30 01:27:44;;;;;;;4.00;3.70;;;24.60;60.60;25.30;100522.00;;;;5007828;28;20171;-52
2023/06/30 01:30:11;;;;;;;3.80;3.50;;;24.60;60.60;25.30;100513.00;;;;5010704;28;20211;-52
2023/06/30 01:32:37;;;;;;;3.70;3.40;;;24.50;60.50;25.30;100511.00;;;;4993060;28;20249;-52
2023/06/30 01:35:03;;;;;;;4.20;3.90;;;24.50;60.90;25.30;100507.00;;;;5009003;28;20250;-52
2023/06/30 01:37:28;;;;;;;3.80;3.50;;;24.50;60.40;25.30;100505.00;;;;5010464;28;20180;-52
2023/06/30 01:39:54;;;;;;;3.72;3.42;;;24.50;60.40;25.30;100496.00;;;;5010089;28;20645;-52
2023/06/30 01:42:20;;;;;;;3.75;3.45;;;24.50;60.20;25.30;100499.00;;;;5009924;28;20195;-52
2023/06/30 01:44:46;;;;;;;3.95;3.65;;;24.50;60.20;25.30;100502.00;;;;5008496;28;20231;-51
2023/06/30 01:47:11;;;;;;;3.70;3.40;;;24.50;60.30;25.30;100503.00;;;;5008680;28;20182;-52
2023/06/30 01:49:37;;;;;;;3.50;3.20;;;24.50;60.10;25.30;100484.00;;;;5010161;28;20180;-52
2023/06/30 01:52:03;;;;;;;3.50;3.20;;;24.50;60.10;25.30;100488.00;;;;5008629;28;20861;-52
2023/06/30 01:54:29;;;;;;;3.72;3.42;;;24.50;60.10;25.20;100508.00;;;;5008305;28;20164;-53
2023/06/30 01:56:55;;;;;;;3.20;3.00;;;24.50;60.10;25.20;100516.00;;;;5009653;28;20672;-53
2023/06/30 01:59:20;;;;;;;3.38;3.17;;;24.50;60.00;25.20;100517.00;;;;5010013;28;20199;-53
2023/06/30 02:01:47;;;;;;;3.70;3.40;;;24.40;60.00;25.20;100506.00;;;;5010138;28;20546;-53
2023/06/30 02:04:12;;;;;;;3.53;3.22;;;24.40;59.80;25.20;100506.00;;;;5003748;28;20192;-52
2023/06/30 02:06:38;;;;;;;3.20;3.00;;;24.40;59.80;25.20;100507.00;;;;5000449;28;20287;-52
2023/06/30 02:09:04;;;;;;;3.38;3.08;;;24.40;59.80;25.20;100513.00;;;;5005771;28;20270;-52
2023/06/30 02:11:30;;;;;;;3.38;3.10;;;24.40;59.70;25.10;100518.00;;;;5000598;28;20203;-53
2023/06/30 02:13:55;;;;;;;3.13;2.93;;;24.40;60.00;25.10;100521.00;;;;5001138;28;20203;-53
2023/06/30 02:16:21;;;;;;;3.70;3.40;;;24.40;60.50;25.10;100524.00;;;;5022965;28;20219;-53
2023/06/30 02:18:47;;;;;;;3.07;2.87;;;24.30;59.70;25.10;100517.00;;;;5007507;28;20480;-53
2023/06/30 02:21:13;;;;;;;3.27;3.07;;;24.30;59.60;25.10;100520.00;;;;5010348;28;20176;-53
2023/06/30 02:23:39;;;;;;;3.10;2.90;;;24.30;59.60;25.00;100531.00;;;;5008093;28;20545;-53
2023/06/30 02:26:04;;;;;;;3.33;3.13;;;24.30;59.60;25.00;100528.00;;;;5009234;28;20258;-53
2023/06/30 02:28:30;;;;;;;3.10;2.90;;;24.30;59.60;25.00;100532.00;;;;5009320;28;20191;-52
2023/06/30 02:30:56;;;;;;;3.13;2.92;;;24.30;59.70;25.00;100535.00;;;;5008052;28;20207;-53
2023/06/30 02:33:23;;;;;;;3.50;3.20;;;24.30;59.60;25.00;100538.00;;;;5009338;28;20658;-52
2023/06/30 02:35:50;;;;;;;3.25;2.95;;;24.30;59.60;25.00;100531.00;;;;5009278;28;20203;-52
2023/06/30 02:38:16;;;;;;;3.30;3.00;;;24.30;59.60;25.00;100534.00;;;;5008867;28;20172;-52
2023/06/30 02:40:42;;;;;;;3.25;3.05;;;24.30;59.60;24.90;100545.00;;;;5008773;28;20595;-52
2023/06/30 02:43:08;;;;;;;3.10;2.90;;;24.20;59.50;24.90;100545.00;;;;5008785;28;20179;-51
2023/06/30 02:45:34;;;;;;;3.20;3.00;;;24.20;59.50;24.90;100542.00;;;;5008670;28;20333;-54
2023/06/30 02:47:59;;;;;;;2.90;2.70;;;24.20;59.50;24.90;100554.00;;;;5009127;28;20677;-52
2023/06/30 02:50:29;;;;;;;3.00;2.80;;;24.20;59.70;24.90;100558.00;;;;5008963;28;20294;-52
2023/06/30 02:52:57;;;;;;;3.25;2.95;;;24.20;59.80;24.90;100558.00;;;;5008724;28;20674;-51
2023/06/30 02:55:23;;;;;;;3.10;2.80;;;24.20;60.00;24.90;100548.00;;;;5009375;28;20192;-53
2023/06/30 02:57:49;;;;;;;2.90;2.70;;;24.20;60.10;24.90;100545.00;;;;5015044;28;20179;-52
2023/06/30 03:00:15;;;;;;;4.18;2.60;;;24.20;60.20;24.90;100554.00;;;;5009798;28;20187;-52
2023/06/30 03:02:41;;;;;;;3.40;2.60;;;24.20;59.60;24.80;100544.00;;;;5010494;28;20175;-52
2023/06/30 03:05:08;;;;;;;2.45;2.25;;;24.20;59.80;24.80;100551.00;;;;5009777;28;20214;-51
2023/06/30 03:07:34;;;;;;;2.70;2.30;;;24.20;59.70;24.80;100536.00;;;;5011014;28;20179;-51
2023/06/30 03:09:59;;;;;;;2.97;2.30;;;24.20;59.50;24.80;100536.00;;;;5010983;28;20194;-52
2023/06/30 03:12:25;;;;;;;2.67;2.40;;;24.20;59.70;24.80;100539.00;;;;5015747;28;20198;-51
2023/06/30 03:14:51;;;;;;;3.50;2.50;;;24.20;59.50;24.80;100537.00;;;;5010674;28;20274;-53
2023/06/30 03:17:17;;;;;;;2.83;2.50;;;24.20;59.40;24.80;100541.00;;;;5009400;28;20171;-52
2023/06/30 03:19:42;;;;;;;3.10;2.70;;;24.20;60.10;24.80;100534.00;;;;5009886;28;20180;-52
2023/06/30 03:22:08;;;;;;;3.57;2.80;;;24.10;59.60;24.70;100531.00;;;;5010985;28;20175;-52
2023/06/30 03:24:34;;;;;;;4.60;3.30;;;24.10;59.70;24.70;100543.00;;;;5010395;28;20230;-52
2023/06/30 03:26:59;;;;;;;3.85;3.50;;;24.10;59.60;24.70;100534.00;;;;5004065;28;20841;-52
2023/06/30 03:29:26;;;;;;;4.23;3.20;;;24.10;59.60;24.60;100543.00;;;;5007741;28;20222;-51
2023/06/30 03:31:51;;;;;;;3.60;3.30;;;24.10;59.70;24.60;100529.00;;;;4960718;28;20243;-52
2023/06/30 03:34:17;;;;;;;3.80;3.30;;;24.10;59.70;24.60;100537.00;;;;5008024;28;20222;-52
2023/06/30 03:36:43;;;;;;;4.20;3.80;;;24.00;59.70;24.60;100543.00;;;;4987963;28;20203;-51
2023/06/30 03:39:09;;;;;;;4.63;3.60;;;24.00;59.70;24.60;100541.00;;;;4989568;28;20176;-51
2023/06/30 03:41:34;;;;;;;5.47;4.20;;;24.00;59.70;24.60;100534.00;;;;4989800;28;20639;-51
2023/06/30 03:44:00;;;;;;;4.17;3.77;;;23.90;59.80;24.50;100539.00;;;;4989018;28;20263;-52
2023/06/30 03:46:26;;;;;;;4.27;3.87;;;23.80;59.80;24.50;100529.00;;;;4989653;28;20196;-51
2023/06/30 03:48:51;;;;;;;4.70;4.20;;;23.90;59.90;24.50;100538.00;;;;4956164;28;20188;-52
2023/06/30 03:51:17;;;;;;;5.47;4.33;;;23.80;59.80;24.50;100532.00;;;;4989398;28;20791;-52
2023/06/30 03:53:43;;;;;;;4.33;3.93;;;23.80;60.00;24.40;100545.00;;;;4988872;28;20531;-52
2023/06/30 03:56:09;;;;;;;4.60;3.80;;;23.80;59.80;24.40;100546.00;;;;4989670;28;20247;-52
2023/06/30 03:58:35;;;;;;;4.77;3.93;;;23.80;59.90;24.40;100544.00;;;;4988940;28;20172;-52
2023/06/30 04:01:01;;;;;;;4.90;3.87;;;23.80;59.90;24.40;100543.00;;;;4988604;28;20172;-52
2023/06/30 04:03:26;;;;;;;4.97;4.10;;;23.70;60.70;24.40;100530.00;;;;4988799;28;20662;-51
2023/06/30 04:05:53;;;;;;;5.77;3.67;;;23.70;59.90;24.30;100529.00;;;;4989404;28;20204;-51
2023/06/30 04:08:18;;;;;;;4.53;3.40;;;23.60;60.10;24.30;100541.00;;;;4988930;28;20239;-51
2023/06/30 04:10:44;;;;;;;4.00;3.53;;;23.70;60.20;24.30;100545.00;;;;4988182;28;20204;-52
2023/06/30 04:13:10;;;;;;;5.60;3.80;;;23.60;60.10;24.20;100550.00;;;;4989202;28;20606;-51
2023/06/30 04:15:36;;;;;;;4.03;3.40;;;23.60;60.20;24.20;100557.00;;;;4988988;28;20713;-52
2023/06/30 04:18:02;;;;;;;6.07;3.23;;;23.60;60.10;24.20;100541.00;;;;4988522;28;20947;-51
2023/06/30 04:20:28;;;;;;;4.57;3.80;;;23.70;60.20;24.20;100545.00;;;;4989362;28;20188;-53
2023/06/30 04:22:54;;;;;;;4.87;3.50;;;23.70;60.20;24.20;100558.00;;;;4988425;28;20180;-51
2023/06/30 04:25:19;;;;;;;5.40;4.10;;;23.60;60.10;24.20;100552.00;;;;4988604;28;20199;-52
2023/06/30 04:27:45;;;;;;;6.70;3.70;;;23.60;60.10;24.20;100546.00;;;;4988498;28;20199;-51
2023/06/30 04:30:12;;;;;;;5.03;3.50;;;23.60;60.00;24.10;100555.00;;;;4992567;28;20180;-51
2023/06/30 04:32:38;;;;;;;3.50;3.20;;;23.60;59.90;24.10;100552.00;;;;4993305;28;20200;-52
2023/06/30 04:35:04;;;;;;;6.33;3.67;;;23.60;60.00;24.10;100539.00;;;;4975180;28;20267;-51
2023/06/30 04:37:30;;;;;;;4.20;3.37;;;23.60;60.00;24.20;100548.00;;;;4998206;28;20179;-51
2023/06/30 04:39:57;;;;;;;6.67;5.63;;;23.60;60.00;24.10;100547.00;;;;5007519;28;20168;-51
2023/06/30 04:42:23;;;;;;;5.10;3.73;;;23.60;60.10;24.10;100553.00;;;;5007022;28;20215;-51
2023/06/30 04:44:49;;;;;;;5.00;4.03;;;23.60;60.10;24.10;100553.00;;;;5011642;28;20222;-52
2023/06/30 04:47:17;;;;;;;4.53;3.60;;;23.60;60.10;24.10;100548.00;;;;5011383;28;20172;-51
2023/06/30 04:49:43;;;;;;;6.67;3.80;;;23.60;60.00;24.10;100550.00;;;;5011702;28;20178;-52
2023/06/30 04:52:09;;;;;;;4.07;3.67;;;23.60;60.10;24.10;100545.00;;;;5011948;28;20207;-51
2023/06/30 04:54:35;;;;;;;4.87;3.83;;;23.60;59.90;24.10;100545.00;;;;5011545;28;20168;-52
2023/06/30 04:57:00;;;;;;;3.70;3.13;;;23.60;60.00;24.10;100557.00;;;;5011615;28;20627;-51
2023/06/30 04:59:26;;;;;;;4.00;3.50;;;23.50;59.90;24.10;100557.00;;;;5014628;28;20187;-52
2023/06/30 05:01:52;;;;;;;4.60;3.40;;;23.50;60.00;24.10;100559.00;;;;5015129;28;20544;-52
2023/06/30 05:04:18;;;;;;;4.13;3.37;;;23.60;60.10;24.10;100574.00;;;;5011907;28;20171;-51
2023/06/30 05:06:43;;;;;;;4.43;3.30;;;23.60;59.90;24.10;100580.00;;;;4994465;28;20574;-52
2023/06/30 05:09:09;;;;;;;5.00;3.47;;;23.50;60.00;24.10;100575.00;;;;5011431;28;20187;-51
2023/06/30 05:11:35;;;;;;;3.77;2.80;;;23.50;59.90;24.10;100569.00;;;;5011394;28;20207;-56
2023/06/30 05:14:01;;;;;;;5.60;3.27;;;23.50;60.00;24.00;100565.00;;;;5013698;28;20180;-52
2023/06/30 05:16:26;;;;;;;3.57;3.10;;;23.50;60.00;24.00;100559.00;;;;5016660;28;20670;-52
2023/06/30 05:18:52;;;;;;;3.97;3.17;;;23.50;60.00;24.00;100556.00;;;;5011156;28;20255;-52
2023/06/30 05:21:18;;;;;;;3.53;2.97;;;23.40;59.70;24.00;100556.00;;;;5011496;28;20180;-52
2023/06/30 05:23:44;;;;;;;4.00;2.97;;;23.40;59.60;24.00;100562.00;;;;5010931;28;20172;-52
2023/06/30 05:26:10;;;;;;;4.60;2.97;;;23.40;59.60;23.90;100558.00;;;;5011211;28;20199;-52
2023/06/30 05:28:35;;;;;;;4.83;3.20;;;23.40;59.60;23.90;100569.00;;;;5010577;28;20202;-51
2023/06/30 05:31:02;;;;;;;4.90;3.00;;;23.40;59.50;23.90;100568.00;;;;5010932;28;20279;-51
2023/06/30 05:33:27;;;;;;;4.40;3.17;;;23.40;59.50;23.90;100570.00;;;;5010793;28;20266;-52
2023/06/30 05:35:53;;;;;;;3.90;2.77;;;23.40;59.50;23.90;100562.00;;;;5011270;28;20325;-51
2023/06/30 05:38:19;;;;;;;4.20;2.87;;;23.40;59.50;23.90;100563.00;;;;5010655;28;20668;-53
2023/06/30 05:40:45;;;;;;;4.40;2.77;;;23.40;59.50;23.90;100574.00;;;;5010520;28;20191;-52
2023/06/30 05:43:11;;;;;;;4.27;3.30;;;23.40;59.50;23.90;100569.00;;;;5010358;28;20522;-52
2023/06/30 05:45:37;;;;;;;5.07;2.80;;;23.40;59.40;23.90;100572.00;;;;5009783;28;20287;-52
2023/06/30 05:48:03;;;;;;;6.63;3.10;;;23.30;59.30;23.80;100549.00;;;;5010505;28;20198;-52
2023/06/30 05:50:29;;;;;;;5.07;2.67;;;23.30;59.40;23.80;100569.00;;;;4992329;28;20203;-52
2023/06/30 05:52:54;;;;;;;2.80;2.50;;;23.30;59.20;23.80;100566.00;;;;5008528;28;20187;-51
2023/06/30 05:55:20;;;;;;;3.67;2.73;;;23.30;59.20;23.80;100565.00;;;;5007663;28;20199;-51
2023/06/30 05:57:47;;;;;;;3.90;2.87;;;23.20;59.30;23.80;100562.00;;;;5008182;28;20172;-51
2023/06/30 06:00:13;;;;;;;5.67;2.80;;;23.20;59.30;23.70;100566.00;;;;5010886;28;20179;-52
2023/06/30 06:02:39;;;;;;;5.33;2.87;;;23.30;59.20;23.70;100574.00;;;;5010338;28;20180;-52
2023/06/30 06:05:05;;;;;;;5.87;3.03;;;23.20;59.30;23.70;100573.00;;;;5004705;28;20200;-51
2023/06/30 06:07:31;;;;;;;4.77;3.10;;;23.20;59.10;23.70;100579.00;;;;4998705;28;20176;-51
2023/06/30 06:09:56;;;;;;;5.30;3.00;;;23.20;59.00;23.70;100579.00;;;;5008736;28;20673;-52
2023/06/30 06:12:22;;;;;;;4.73;2.70;;;23.20;59.00;23.70;100586.00;;;;5004891;28;20234;-51
2023/06/30 06:14:48;;;;;;;4.43;2.80;;;23.20;59.00;23.70;100582.00;;;;5006221;28;20601;-51
2023/06/30 06:17:14;;;;;;;3.90;2.60;;;23.20;59.00;23.60;100594.00;;;;5009678;28;20176;-50
2023/06/30 06:19:39;;;;;;;4.17;2.93;;;23.10;58.80;23.60;100596.00;;;;5010291;28;20258;-52
2023/06/30 06:22:05;;;;;;;4.13;2.80;;;23.10;58.70;23.60;100598.00;;;;5010238;28;20205;-56
2023/06/30 06:24:32;;;;;;;4.63;2.80;;;23.10;58.50;23.60;100591.00;;;;5009623;28;20207;-51
2023/06/30 06:26:58;;;;;;;3.90;2.97;;;23.10;58.60;23.60;100598.00;;;;5006282;28;20694;-50
2023/06/30 06:29:23;;;;;;;5.23;2.67;;;23.10;58.60;23.60;100602.00;;;;4989129;28;20192;-51
2023/06/30 06:31:50;;;;;;;4.97;2.80;;;23.00;58.50;23.60;100597.00;;;;4989986;28;20208;-51
2023/06/30 06:34:19;;;;;;;5.83;2.80;;;23.10;58.50;23.50;100591.00;;;;4990076;28;20172;-52
2023/06/30 06:36:45;;;;;;;4.40;2.60;;;23.00;58.50;23.50;100591.00;;;;4989928;28;20193;-51
2023/06/30 06:39:11;;;;;;;5.60;2.93;;;23.00;58.50;23.50;100593.00;;;;4995613;28;20239;-53
2023/06/30 06:41:38;;;;;;;5.43;2.70;;;23.00;58.50;23.50;100603.00;;;;4995856;28;20219;-50
2023/06/30 06:44:04;;;;;;;5.63;3.00;;;23.00;58.50;23.50;100581.00;;;;4990466;28;20202;-51
2023/06/30 06:46:30;;;;;;;4.37;2.70;;;23.00;58.50;23.50;100592.00;;;;4990166;28;20290;-52
2023/06/30 06:48:55;;;;;;;3.67;2.60;;;23.00;58.50;23.50;100583.00;;;;4989829;28;20275;-52
2023/06/30 06:51:21;;;;;;;5.30;3.00;;;23.00;58.50;23.50;100593.00;;;;4990085;28;20234;-52
2023/06/30 06:53:47;;;;;;;5.47;2.70;;;23.00;58.50;23.50;100606.00;;;;4989823;28;20183;-52
2023/06/30 06:56:13;;;;;;;3.97;2.90;;;23.00;58.50;23.50;100593.00;;;;4990196;28;20204;-51
2023/06/30 06:58:38;;;;;;;4.53;2.90;;;23.00;58.50;23.50;100594.00;;;;4991478;28;20172;-52
2023/06/30 07:01:04;;;;;;;5.67;3.17;;;23.00;58.50;23.40;100595.00;;;;5000350;28;20345;-51
2023/06/30 07:03:30;;;;;;;4.10;2.87;;;22.90;58.40;23.40;100591.00;;;;4993322;28;20192;-55
2023/06/30 07:05:56;;;;;;;5.23;2.80;;;22.90;58.40;23.40;100595.00;;;;4974469;28;20195;-52
2023/06/30 07:08:22;;;;;;;5.37;2.77;;;22.80;58.50;23.40;100593.00;;;;4990655;28;20192;-52
2023/06/30 07:10:50;;;;;;;4.47;2.77;;;22.90;58.60;23.40;100587.00;;;;5006721;28;20641;-52
2023/06/30 07:13:20;;;;;;;4.20;2.80;;;22.90;58.50;23.40;100601.00;;;;5004857;28;20174;-52
2023/06/30 07:15:47;;;;;;;4.30;2.90;;;22.80;59.00;23.40;100599.00;;;;4988707;28;20685;-52
2023/06/30 07:18:14;;;;;;;4.77;2.90;;;22.80;58.70;23.40;100598.00;;;;5012112;28;20176;-51
2023/06/30 07:20:39;;;;;;;6.17;3.00;;;22.80;58.50;23.40;100600.00;;;;5011173;28;20226;-52
2023/06/30 07:23:05;;;;;;;4.20;2.67;;;22.80;58.50;23.40;100599.00;;;;5003847;28;20184;-51
2023/06/30 07:25:31;;;;;;;4.10;2.50;;;22.80;58.60;23.40;100605.00;;;;5007759;28;20211;-52
2023/06/30 07:27:57;;;;;;;4.70;2.53;;;22.80;58.60;23.40;100611.00;;;;4991265;28;20204;-51
2023/06/30 07:30:24;;;;;;;6.30;2.53;;;22.80;58.50;23.40;100614.00;;;;5002483;28;20633;-51
2023/06/30 07:32:50;;;;;;;4.20;2.50;;;22.80;58.50;23.40;100611.00;;;;5009297;28;20193;-51
2023/06/30 07:35:17;;;;;;;5.23;2.63;;;22.80;58.70;23.40;100595.00;;;;5007798;28;20207;-52
2023/06/30 07:37:46;;;;;;;6.50;2.77;;;22.70;58.60;23.30;100613.00;;;;5007489;28;20259;-49
2023/06/30 07:40:12;;;;;;;9.47;2.77;;;22.80;59.00;23.30;100615.00;;;;5009558;28;20243;-50
2023/06/30 07:42:39;;;;;;;5.27;2.47;;;22.70;58.70;23.30;100624.00;;;;5008780;28;20837;-49
2023/06/30 07:45:31;;;;;;;5.10;2.60;;;22.80;58.60;23.40;100620.00;;;;5009132;28;20199;-49
2023/06/30 07:47:56;;;;;;;3.77;2.50;;;22.80;58.30;23.40;100620.00;;;;5001041;28;20238;-50
2023/06/30 07:50:24;;;;;;;4.03;2.57;;;22.80;57.60;23.40;100619.00;;;;5009537;28;20200;-50
2023/06/30 07:52:49;;;;;;;4.37;2.63;;;22.80;57.40;23.40;100619.00;;;;5007991;28;20222;-50
2023/06/30 07:55:16;;;;;;;6.90;2.90;;;22.80;56.90;23.40;100616.00;;;;5008684;28;20793;-50
2023/06/30 07:57:43;;;;;;;4.37;2.63;;;22.90;57.50;23.40;100616.00;;;;5008421;28;20653;-50
2023/06/30 08:00:10;;;;;;;3.37;2.50;;;22.80;56.90;23.40;100619.00;;;;5009299;28;20187;-51
2023/06/30 08:02:37;;;;;;;5.13;2.43;;;22.80;56.90;23.40;100613.00;;;;4985152;28;20176;-50
2023/06/30 08:05:04;;;;;;;5.73;2.70;;;22.90;56.90;23.40;100610.00;;;;4993534;28;20203;-50
2023/06/30 08:07:29;;;;;;;4.13;2.30;;;22.80;56.90;23.40;100621.00;;;;4992882;28;20183;-50
2023/06/30 08:09:55;;;;;;;8.57;2.30;;;22.80;56.90;23.40;100612.00;;;;4993584;28;20268;-50
2023/06/30 08:12:21;;;;;;;7.10;2.77;;;22.80;56.90;23.40;100617.00;;;;4993024;28;20207;-50
2023/06/30 08:14:50;;;;;;;2.93;2.30;;;22.80;56.90;23.40;100622.00;;;;4992338;28;20180;-50
2023/06/30 08:17:15;;;;;;;3.27;2.17;;;22.80;56.90;23.40;100622.00;;;;4993199;28;20227;-51
2023/06/30 08:19:42;;;;;;;2.20;2.00;;;22.80;56.50;23.40;100629.00;;;;4998694;28;20187;-50
2023/06/30 08:22:09;;;;;;;2.53;2.10;;;22.80;56.60;23.40;100632.00;;;;5001821;28;20188;-51
2023/06/30 08:24:35;;;;;;;3.00;2.10;;;22.70;56.60;23.40;100626.00;;;;4992483;28;20215;-50
2023/06/30 08:27:01;;;;;;;3.27;2.20;;;22.70;56.60;23.40;100629.00;;;;5010550;28;20222;-51
2023/06/30 08:29:27;;;;;;;2.40;2.17;;;22.70;56.40;23.30;100618.00;;;;5012797;28;20198;-51
2023/06/30 08:31:54;;;;;;;3.43;2.20;;;22.70;56.00;23.30;100625.00;;;;5013035;28;20211;-51
2023/06/30 08:34:23;;;;;;;2.30;2.10;;;22.70;55.70;23.30;100623.00;;;;5012656;28;20227;-51
2023/06/30 08:36:49;;;;;;;2.70;2.00;;;22.70;55.70;23.30;100619.00;;;;5012749;28;20207;-51
2023/06/30 08:39:15;;;;;;;3.07;2.17;;;22.70;55.60;23.30;100627.00;;;;5012537;28;20176;-50
2023/06/30 08:41:41;;;;;;;2.60;1.97;;;22.70;55.70;23.30;100622.00;;;;5012710;28;20180;-50
2023/06/30 08:44:06;;;;;;;3.00;2.10;;;22.60;55.60;23.20;100624.00;;;;5010881;28;20180;-50
2023/06/30 08:46:32;;;;;;;2.23;1.97;;;22.60;54.90;23.20;100615.00;;;;5012249;28;20211;-50
2023/06/30 08:48:58;;;;;;;1.90;1.70;;;22.60;54.70;23.20;100613.00;;;;5010968;28;20364;-51
2023/06/30 08:51:23;;;;;;;2.43;1.90;;;22.60;54.50;23.20;100615.00;;;;5010877;28;20210;-50
2023/06/30 08:53:51;;;;;;;4.07;2.20;;;22.70;54.60;23.20;100615.00;;;;5011574;28;20179;-50
2023/06/30 08:56:16;;;;;;;1.93;1.60;;;22.60;54.50;23.20;100611.00;;;;5012361;28;20199;-51
2023/06/30 08:58:42;;;;;;;2.37;2.10;;;22.60;54.60;23.20;100613.00;;;;5010696;28;20168;-50
2023/06/30 09:01:08;;;;;;;1.80;1.70;;;22.60;53.20;23.20;100603.00;;;;5011126;28;20535;-49
2023/06/30 09:03:34;;;;;;;2.87;2.00;;;22.60;53.00;23.10;100603.00;;;;5010225;28;20202;-51
2023/06/30 09:06:00;;;;;;;2.80;1.80;;;22.50;53.30;23.10;100604.00;;;;5016197;28;20227;-52
2023/06/30 09:08:45;;;;;;;3.70;2.10;;;22.50;53.50;23.10;100605.00;;;;5016557;28;20175;-50
2023/06/30 09:11:12;;;;;;;2.43;1.90;;;22.50;53.30;23.10;100599.00;;;;5010980;28;20215;-50
2023/06/30 09:13:38;;;;;;;2.33;1.93;;;22.50;53.40;23.10;100600.00;;;;5009906;28;20230;-50
2023/06/30 09:16:08;;;;;;;2.27;1.90;;;22.50;53.30;23.10;100601.00;;;;5011400;28;20191;-50
2023/06/30 09:18:33;;;;;;;1.90;1.80;;;22.50;52.30;23.10;100602.00;;;;4995029;28;20263;-50
2023/06/30 09:20:59;;;;;;;2.70;2.00;;;22.50;52.30;23.10;100583.00;;;;5015820;28;20263;-51
2023/06/30 09:23:27;;;;;;;2.33;1.83;;;22.50;52.50;23.20;100604.00;;;;5018491;28;20252;-50
2023/06/30 09:25:53;;;;;;;3.13;1.90;;;22.50;52.70;23.20;100598.00;;;;5017481;28;20200;-50
2023/06/30 09:28:18;;;;;;;3.20;2.00;;;22.60;53.00;22.80;100597.00;;;;5011935;28;20190;-50
2023/06/30 09:30:47;;;;;;;2.67;1.80;;;22.60;53.10;23.20;100588.00;;;;5010774;28;20210;-51
2023/06/30 09:33:17;;;;;;;3.40;1.90;;;22.60;53.00;23.20;100596.00;;;;5011732;28;20250;-50
2023/06/30 09:35:45;;;;;;;2.00;1.80;;;22.50;52.80;23.20;100589.00;;;;5011284;28;20211;-50
2023/06/30 09:38:15;;;;;;;2.57;1.93;;;22.50;52.80;23.10;100590.00;;;;5011694;28;20182;-50
2023/06/30 09:40:50;;;;;;;2.30;1.97;;;22.50;52.70;23.10;100574.00;;;;5011668;28;20704;-50
2023/06/30 09:43:17;;;;;;;2.20;1.57;;;22.50;52.60;23.20;100593.00;;;;5011496;28;20171;-50
2023/06/30 09:45:44;;;;;;;3.47;1.90;;;22.50;52.20;23.10;100580.00;;;;5010963;28;20219;-51
2023/06/30 09:48:11;;;;;;;2.20;1.90;;;22.50;51.60;23.10;100588.00;;;;5011190;28;20179;-51
2023/06/30 09:50:36;;;;;;;3.10;1.90;;;22.50;51.60;23.10;100579.00;;;;5011397;28;20206;-50
2023/06/30 09:53:02;;;;;;;2.10;1.90;;;22.50;51.90;23.10;100586.00;;;;5011147;28;20167;-50
2023/06/30 09:55:28;;;;;;;2.97;1.97;;;22.50;52.20;23.10;100577.00;;;;5011007;28;20199;-50
2023/06/30 09:57:55;;;;;;;2.53;1.90;;;22.50;52.30;23.20;100578.00;;;;5016538;28;20183;-50
2023/06/30 10:00:22;;;;;;;2.30;1.90;;;22.50;52.10;23.20;100580.00;;;;5017076;28;20186;-49
2023/06/30 10:03:02;;;;;;;2.00;1.80;;;22.60;52.30;23.20;100587.00;;;;5011357;28;20516;-50
2023/06/30 10:05:28;;;;;;;2.87;1.83;;;22.60;52.30;23.20;100582.00;;;;5010639;28;20203;-54
2023/06/30 10:07:54;;;;;;;2.23;1.90;;;22.60;52.00;23.30;100589.00;;;;5010797;28;20168;-50
2023/06/30 10:10:19;;;;;;;2.13;1.90;;;22.70;52.10;23.30;100577.00;;;;5009530;28;20172;-50
2023/06/30 10:12:45;;;;;;;2.23;1.80;;;22.70;51.90;23.30;100580.00;;;;5010909;28;20168;-50
2023/06/30 10:15:11;;;;;;;2.70;1.90;;;22.70;52.10;23.30;100587.00;;;;4993054;28;20203;-50
2023/06/30 10:17:38;;;;;;;3.90;2.13;;;22.70;51.90;23.40;100592.00;;;;5008933;28;20179;-50
2023/06/30 10:20:05;;;;;;;2.30;1.90;;;22.70;52.00;23.40;100550.00;;;;5009813;28;20499;-50
2023/06/30 10:22:31;;;;;;;2.63;1.83;;;22.70;52.10;23.40;100569.00;;;;5009624;28;20836;-50
2023/06/30 10:24:57;;;;;;;2.27;1.90;;;22.70;51.90;23.40;100566.00;;;;5010097;28;20195;-50
2023/06/30 10:27:23;;;;;;;2.33;2.00;;;22.70;51.90;23.40;100576.00;;;;5009066;28;20184;-50
2023/06/30 10:29:48;;;;;;;3.00;2.13;;;22.80;52.00;23.40;100570.00;;;;4992783;28;20260;-50
2023/06/30 10:32:14;;;;;;;3.00;2.23;;;22.80;51.80;23.40;100572.00;;;;5009220;28;20207;-50
2023/06/30 10:34:40;;;;;;;2.37;1.77;;;22.80;51.90;23.50;100570.00;;;;5008804;28;20223;-50
2023/06/30 10:37:05;;;;;;;3.33;2.10;;;22.80;51.70;23.50;100553.00;;;;5009248;28;20172;-50
2023/06/30 10:39:31;;;;;;;2.50;1.97;;;22.80;51.60;23.50;100566.00;;;;5009150;28;20180;-50
2023/06/30 10:41:57;;;;;;;3.00;2.10;;;22.80;51.60;23.50;100558.00;;;;5009086;28;20199;-50
2023/06/30 10:44:40;;;;;;;2.10;1.93;;;22.80;51.60;23.50;100553.00;;;;5009776;28;20783;-51